sensor_id;sensor_type;location;lat;lon;timestamp;pressure;altitude;pressure_sealevel;temperature;humidity
79527;BME280;68974;47.754;-3.364;2023-04-24T00:00:58;101180.28;;;10.95;65.45
79527;BME280;68974;47.754;-3.364;2023-04-24T00:03:26;101180.56;;;10.83;66.14
79527;BME280;68974;47.754;-3.364;2023-04-24T00:05:52;101177.53;;;10.84;66.46
79527;BME280;68974;47.754;-3.364;2023-04-24T00:08:18;101181.09;;;10.85;66.32
79527;BME280;68974;47.754;-3.364;2023-04-24T00:10:43;101176.16;;;10.82;66.24
79527;BME280;68974;47.754;-3.364;2023-04-24T00:13:09;101185.50;;;10.86;66.35
79527;BME280;68974;47.754;-3.364;2023-04-24T00:15:34;101184.38;;;10.82;66.57
79527;BME280;68974;47.754;-3.364;2023-04-24T00:18:00;101183.84;;;10.85;66.48
79527;BME280;68974;47.754;-3.364;2023-04-24T00:20:27;101183.81;;;10.80;66.96
79527;BME280;68974;47.754;-3.364;2023-04-24T00:22:54;101176.97;;;10.82;66.56
79527;BME280;68974;47.754;-3.364;2023-04-24T00:25:20;101177.53;;;10.79;66.92
79527;BME280;68974;47.754;-3.364;2023-04-24T00:27:45;101178.31;;;10.80;67.01
79527;BME280;68974;47.754;-3.364;2023-04-24T00:30:11;101183.81;;;10.80;66.39
79527;BME280;68974;47.754;-3.364;2023-04-24T00:32:36;101194.28;;;10.83;66.50
79527;BME280;68974;47.754;-3.364;2023-04-24T00:35:02;101194.28;;;10.78;67.35
79527;BME280;68974;47.754;-3.364;2023-04-24T00:37:27;101195.91;;;10.74;67.10
79527;BME280;68974;47.754;-3.364;2023-04-24T00:39:53;101193.72;;;10.76;67.03
79527;BME280;68974;47.754;-3.364;2023-04-24T00:42:20;101194.28;;;10.78;67.47
79527;BME280;68974;47.754;-3.364;2023-04-24T00:44:45;101191.53;;;10.78;67.35
79527;BME280;68974;47.754;-3.364;2023-04-24T00:47:11;101196.44;;;10.71;67.41
79527;BME280;68974;47.754;-3.364;2023-04-24T00:49:37;101200.31;;;10.75;67.54
79527;BME280;68974;47.754;-3.364;2023-04-24T00:52:03;101192.59;;;10.72;67.45
79527;BME280;68974;47.754;-3.364;2023-04-24T00:54:32;101191.53;;;10.83;67.25
79527;BME280;68974;47.754;-3.364;2023-04-24T00:56:58;101193.44;;;10.72;67.29
79527;BME280;68974;47.754;-3.364;2023-04-24T00:59:23;101195.38;;;10.77;67.87
79527;BME280;68974;47.754;-3.364;2023-04-24T01:01:49;101199.72;;;10.63;67.97
79527;BME280;68974;47.754;-3.364;2023-04-24T01:04:16;101203.56;;;10.62;68.27
79527;BME280;68974;47.754;-3.364;2023-04-24T01:06:43;101205.19;;;10.53;68.77
79527;BME280;68974;47.754;-3.364;2023-04-24T01:09:10;101202.16;;;10.49;68.96
79527;BME280;68974;47.754;-3.364;2023-04-24T01:11:36;101209.03;;;10.52;69.20
79527;BME280;68974;47.754;-3.364;2023-04-24T01:14:02;101202.44;;;10.53;69.07
79527;BME280;68974;47.754;-3.364;2023-04-24T01:16:27;101214.28;;;10.58;69.01
79527;BME280;68974;47.754;-3.364;2023-04-24T01:18:53;101212.34;;;10.54;69.02
79527;BME280;68974;47.754;-3.364;2023-04-24T01:21:20;101212.09;;;10.60;69.50
79527;BME280;68974;47.754;-3.364;2023-04-24T01:23:46;101215.66;;;10.66;69.02
79527;BME280;68974;47.754;-3.364;2023-04-24T01:26:13;101210.75;;;10.73;68.39
79527;BME280;68974;47.754;-3.364;2023-04-24T01:28:39;101215.97;;;10.69;68.44
79527;BME280;68974;47.754;-3.364;2023-04-24T01:31:05;101210.75;;;10.73;68.52
79527;BME280;68974;47.754;-3.364;2023-04-24T01:33:31;101218.16;;;10.67;68.62
79527;BME280;68974;47.754;-3.364;2023-04-24T01:35:57;101222.88;;;10.92;68.31
79527;BME280;68974;47.754;-3.364;2023-04-24T01:38:22;101222.31;;;10.85;67.99
79527;BME280;68974;47.754;-3.364;2023-04-24T01:40:49;101223.94;;;10.81;68.60
79527;BME280;68974;47.754;-3.364;2023-04-24T01:43:15;101225.31;;;10.68;68.38
79527;BME280;68974;47.754;-3.364;2023-04-24T01:45:40;101230.53;;;10.65;68.79
79527;BME280;68974;47.754;-3.364;2023-04-24T01:48:06;101219.53;;;10.70;69.34
79527;BME280;68974;47.754;-3.364;2023-04-24T01:50:31;101219.53;;;10.65;69.00
79527;BME280;68974;47.754;-3.364;2023-04-24T01:52:57;101223.38;;;10.64;68.60
79527;BME280;68974;47.754;-3.364;2023-04-24T01:55:22;101226.63;;;10.61;69.27
79527;BME280;68974;47.754;-3.364;2023-04-24T01:57:48;101231.03;;;10.62;69.35
79527;BME280;68974;47.754;-3.364;2023-04-24T02:00:14;101228.28;;;10.57;69.35
79527;BME280;68974;47.754;-3.364;2023-04-24T02:02:40;101224.97;;;10.55;69.77
79527;BME280;68974;47.754;-3.364;2023-04-24T02:05:07;101234.34;;;10.64;69.51
79527;BME280;68974;47.754;-3.364;2023-04-24T02:07:33;101226.88;;;10.49;69.37
79527;BME280;68974;47.754;-3.364;2023-04-24T02:09:58;101226.09;;;10.59;69.26
79527;BME280;68974;47.754;-3.364;2023-04-24T02:12:24;101227.72;;;10.50;69.86
79527;BME280;68974;47.754;-3.364;2023-04-24T02:14:49;101225.50;;;10.52;69.44
79527;BME280;68974;47.754;-3.364;2023-04-24T02:17:15;101227.16;;;10.53;69.74
79527;BME280;68974;47.754;-3.364;2023-04-24T02:19:41;101227.72;;;10.50;70.14
79527;BME280;68974;47.754;-3.364;2023-04-24T02:22:06;101230.72;;;10.48;70.42
79527;BME280;68974;47.754;-3.364;2023-04-24T02:24:32;101229.06;;;10.47;70.52
79527;BME280;68974;47.754;-3.364;2023-04-24T02:26:57;101233.44;;;10.43;70.15
79527;BME280;68974;47.754;-3.364;2023-04-24T02:29:23;101232.88;;;10.41;70.49
79527;BME280;68974;47.754;-3.364;2023-04-24T02:31:48;101227.41;;;10.46;70.57
79527;BME280;68974;47.754;-3.364;2023-04-24T02:34:13;101229.34;;;10.51;69.80
79527;BME280;68974;47.754;-3.364;2023-04-24T02:36:39;101235.38;;;10.48;70.33
79527;BME280;68974;47.754;-3.364;2023-04-24T02:39:04;101233.69;;;10.41;70.38
79527;BME280;68974;47.754;-3.364;2023-04-24T02:41:30;101236.16;;;10.38;70.93
79527;BME280;68974;47.754;-3.364;2023-04-24T02:44:00;101242.47;;;10.38;70.45
79527;BME280;68974;47.754;-3.364;2023-04-24T02:46:25;101245.22;;;10.38;70.93
79527;BME280;68974;47.754;-3.364;2023-04-24T02:48:51;101235.34;;;10.37;70.77
79527;BME280;68974;47.754;-3.364;2023-04-24T02:51:16;101230.94;;;10.41;70.41
79527;BME280;68974;47.754;-3.364;2023-04-24T02:53:42;101242.53;;;10.49;70.44
79527;BME280;68974;47.754;-3.364;2023-04-24T02:56:07;101238.69;;;10.45;70.87
79527;BME280;68974;47.754;-3.364;2023-04-24T02:58:33;101243.09;;;10.46;70.79
79527;BME280;68974;47.754;-3.364;2023-04-24T03:00:58;101244.50;;;10.58;70.19
79527;BME280;68974;47.754;-3.364;2023-04-24T03:03:23;101248.31;;;10.52;70.43
79527;BME280;68974;47.754;-3.364;2023-04-24T03:05:49;101238.16;;;10.53;70.30
79527;BME280;68974;47.754;-3.364;2023-04-24T03:08:15;101253.53;;;10.49;70.71
79527;BME280;68974;47.754;-3.364;2023-04-24T03:10:40;101247.47;;;10.52;70.86
79527;BME280;68974;47.754;-3.364;2023-04-24T03:13:06;101238.16;;;10.58;70.54
79527;BME280;68974;47.754;-3.364;2023-04-24T03:15:31;101245.88;;;10.61;70.48
79527;BME280;68974;47.754;-3.364;2023-04-24T03:17:57;101241.50;;;10.65;69.46
79527;BME280;68974;47.754;-3.364;2023-04-24T03:20:23;101253.06;;;10.72;69.36
79527;BME280;68974;47.754;-3.364;2023-04-24T03:22:48;101241.47;;;10.55;69.60
79527;BME280;68974;47.754;-3.364;2023-04-24T03:25:13;101250.53;;;10.55;70.27
79527;BME280;68974;47.754;-3.364;2023-04-24T03:27:39;101252.13;;;10.51;70.06
79527;BME280;68974;47.754;-3.364;2023-04-24T03:30:08;101260.66;;;10.50;70.41
79527;BME280;68974;47.754;-3.364;2023-04-24T03:32:34;101242.59;;;10.64;69.78
79527;BME280;68974;47.754;-3.364;2023-04-24T03:34:59;101252.47;;;10.55;70.21
79527;BME280;68974;47.754;-3.364;2023-04-24T03:37:25;101253.53;;;10.49;70.21
79527;BME280;68974;47.754;-3.364;2023-04-24T03:39:51;101255.19;;;10.50;70.69
79527;BME280;68974;47.754;-3.364;2023-04-24T03:42:17;101255.19;;;10.50;70.43
79527;BME280;68974;47.754;-3.364;2023-04-24T03:44:42;101259.03;;;10.54;70.28
79527;BME280;68974;47.754;-3.364;2023-04-24T03:47:07;101254.34;;;10.49;70.95
79527;BME280;68974;47.754;-3.364;2023-04-24T03:49:33;101244.22;;;10.55;70.48
79527;BME280;68974;47.754;-3.364;2023-04-24T03:51:58;101254.09;;;10.56;70.97
79527;BME280;68974;47.754;-3.364;2023-04-24T03:54:24;101250.50;;;10.50;70.78
79527;BME280;68974;47.754;-3.364;2023-04-24T03:56:49;101259.63;;;10.66;69.85
79527;BME280;68974;47.754;-3.364;2023-04-24T03:59:15;101270.56;;;10.56;70.57
79527;BME280;68974;47.754;-3.364;2023-04-24T04:01:40;101264.75;;;10.42;71.03
79527;BME280;68974;47.754;-3.364;2023-04-24T04:04:06;101274.34;;;10.39;70.94
79527;BME280;68974;47.754;-3.364;2023-04-24T04:06:33;101264.41;;;10.28;71.28
79527;BME280;68974;47.754;-3.364;2023-04-24T04:08:58;101265.84;;;10.36;71.85
79527;BME280;68974;47.754;-3.364;2023-04-24T04:11:24;101268.56;;;10.31;72.09
79527;BME280;68974;47.754;-3.364;2023-04-24T04:13:50;101261.91;;;10.27;72.50
79527;BME280;68974;47.754;-3.364;2023-04-24T04:16:16;101267.44;;;10.32;72.14
79527;BME280;68974;47.754;-3.364;2023-04-24T04:18:44;101268.88;;;10.45;71.93
79527;BME280;68974;47.754;-3.364;2023-04-24T04:21:10;101268.88;;;10.39;71.53
79527;BME280;68974;47.754;-3.364;2023-04-24T04:23:35;101269.94;;;10.38;71.60
79527;BME280;68974;47.754;-3.364;2023-04-24T04:26:01;101270.53;;;10.51;71.80
79527;BME280;68974;47.754;-3.364;2023-04-24T04:28:27;101278.25;;;10.54;71.56
79527;BME280;68974;47.754;-3.364;2023-04-24T04:30:53;101276.06;;;10.56;71.71
79527;BME280;68974;47.754;-3.364;2023-04-24T04:33:25;101260.16;;;10.63;70.83
79527;BME280;68974;47.754;-3.364;2023-04-24T04:35:51;101259.38;;;10.72;70.70
79527;BME280;68974;47.754;-3.364;2023-04-24T04:38:22;101257.44;;;10.68;71.05
79527;BME280;68974;47.754;-3.364;2023-04-24T04:40:47;101263.53;;;10.75;70.36
79527;BME280;68974;47.754;-3.364;2023-04-24T04:43:12;101254.13;;;10.66;70.73
79527;BME280;68974;47.754;-3.364;2023-04-24T04:45:41;101257.97;;;10.60;70.93
79527;BME280;68974;47.754;-3.364;2023-04-24T04:48:08;101254.63;;;10.53;71.26
79527;BME280;68974;47.754;-3.364;2023-04-24T04:50:35;101262.31;;;10.51;71.45
79527;BME280;68974;47.754;-3.364;2023-04-24T04:53:00;101251.88;;;10.53;71.78
79527;BME280;68974;47.754;-3.364;2023-04-24T04:55:26;101260.66;;;10.50;72.43
79527;BME280;68974;47.754;-3.364;2023-04-24T04:57:52;101271.41;;;10.56;73.38
79527;BME280;68974;47.754;-3.364;2023-04-24T05:00:17;101269.78;;;10.65;72.84
79527;BME280;68974;47.754;-3.364;2023-04-24T05:02:43;101275.00;;;10.67;73.41
79527;BME280;68974;47.754;-3.364;2023-04-24T05:05:09;101265.69;;;10.68;73.77
79527;BME280;68974;47.754;-3.364;2023-04-24T05:07:35;101272.00;;;10.63;73.31
79527;BME280;68974;47.754;-3.364;2023-04-24T05:10:00;101275.59;;;10.69;74.01
79527;BME280;68974;47.754;-3.364;2023-04-24T05:12:25;101267.38;;;10.74;73.55
79527;BME280;68974;47.754;-3.364;2023-04-24T05:14:52;101283.25;;;10.67;73.66
79527;BME280;68974;47.754;-3.364;2023-04-24T05:17:17;101273.06;;;10.57;74.11
79527;BME280;68974;47.754;-3.364;2023-04-24T05:19:42;101271.41;;;10.56;74.57
79527;BME280;68974;47.754;-3.364;2023-04-24T05:22:08;101270.06;;;10.59;73.97
79527;BME280;68974;47.754;-3.364;2023-04-24T05:24:35;101282.63;;;10.45;74.11
79527;BME280;68974;47.754;-3.364;2023-04-24T05:27:01;101281.47;;;10.35;74.50
79527;BME280;68974;47.754;-3.364;2023-04-24T05:29:27;101270.72;;;10.29;74.85
79527;BME280;68974;47.754;-3.364;2023-04-24T05:31:56;101278.16;;;10.33;75.29
79527;BME280;68974;47.754;-3.364;2023-04-24T05:34:21;101281.44;;;10.30;75.01
79527;BME280;68974;47.754;-3.364;2023-04-24T05:36:46;101283.03;;;10.26;75.24
79527;BME280;68974;47.754;-3.364;2023-04-24T05:39:13;101288.81;;;10.25;75.10
79527;BME280;68974;47.754;-3.364;2023-04-24T05:41:38;101281.94;;;10.22;75.08
79527;BME280;68974;47.754;-3.364;2023-04-24T05:44:04;101285.53;;;10.28;75.83
79527;BME280;68974;47.754;-3.364;2023-04-24T05:46:29;101276.47;;;10.27;75.38
79527;BME280;68974;47.754;-3.364;2023-04-24T05:48:54;101284.47;;;10.34;75.71
79527;BME280;68974;47.754;-3.364;2023-04-24T05:51:20;101283.16;;;10.47;75.29
79527;BME280;68974;47.754;-3.364;2023-04-24T05:53:45;101291.19;;;10.58;74.62
79527;BME280;68974;47.754;-3.364;2023-04-24T05:56:11;101284.91;;;10.63;74.49
79527;BME280;68974;47.754;-3.364;2023-04-24T05:58:36;101282.75;;;10.70;74.05
79527;BME280;68974;47.754;-3.364;2023-04-24T06:01:03;101302.50;;;10.67;73.33
79527;BME280;68974;47.754;-3.364;2023-04-24T06:03:28;101299.56;;;10.83;72.63
79527;BME280;68974;47.754;-3.364;2023-04-24T06:05:54;101289.38;;;10.84;72.52
79527;BME280;68974;47.754;-3.364;2023-04-24T06:08:19;101294.59;;;10.91;73.48
79527;BME280;68974;47.754;-3.364;2023-04-24T06:10:45;101299.31;;;11.00;73.14
79527;BME280;68974;47.754;-3.364;2023-04-24T06:13:10;101296.06;;;11.08;72.75
79527;BME280;68974;47.754;-3.364;2023-04-24T06:15:36;101304.84;;;11.10;73.07
79527;BME280;68974;47.754;-3.364;2023-04-24T06:18:02;101312.25;;;11.10;73.45
79527;BME280;68974;47.754;-3.364;2023-04-24T06:20:27;101303.78;;;11.26;72.47
79527;BME280;68974;47.754;-3.364;2023-04-24T06:22:53;101304.88;;;11.20;73.41
79527;BME280;68974;47.754;-3.364;2023-04-24T06:25:19;101311.50;;;11.35;72.77
79527;BME280;68974;47.754;-3.364;2023-04-24T06:27:44;101306.56;;;11.42;72.07
79527;BME280;68974;47.754;-3.364;2023-04-24T06:30:10;101313.19;;;11.46;72.19
79527;BME280;68974;47.754;-3.364;2023-04-24T06:32:36;101302.44;;;11.44;71.80
79527;BME280;68974;47.754;-3.364;2023-04-24T06:35:01;101297.75;;;11.35;71.70
79527;BME280;68974;47.754;-3.364;2023-04-24T06:37:26;101302.72;;;11.33;70.71
79527;BME280;68974;47.754;-3.364;2023-04-24T06:39:52;101316.72;;;11.31;70.55
79527;BME280;68974;47.754;-3.364;2023-04-24T06:42:17;101303.78;;;11.26;71.58
79527;BME280;68974;47.754;-3.364;2023-04-24T06:44:45;101310.41;;;11.30;71.63
79527;BME280;68974;47.754;-3.364;2023-04-24T06:47:10;101315.91;;;11.30;71.44
79527;BME280;68974;47.754;-3.364;2023-04-24T06:49:37;101314.50;;;11.23;71.55
79527;BME280;68974;47.754;-3.364;2023-04-24T06:52:03;101324.13;;;11.20;70.92
79527;BME280;68974;47.754;-3.364;2023-04-24T06:54:30;101318.63;;;11.20;71.63
79527;BME280;68974;47.754;-3.364;2023-04-24T06:56:56;101320.28;;;11.21;71.44
79527;BME280;68974;47.754;-3.364;2023-04-24T06:59:23;101326.63;;;11.27;71.57
79527;BME280;68974;47.754;-3.364;2023-04-24T07:01:49;101321.41;;;11.30;71.84
79527;BME280;68974;47.754;-3.364;2023-04-24T07:04:14;101328.00;;;11.35;71.93
79527;BME280;68974;47.754;-3.364;2023-04-24T07:06:40;101339.59;;;11.42;70.79
79527;BME280;68974;47.754;-3.364;2023-04-24T07:09:05;101339.59;;;11.42;71.51
79527;BME280;68974;47.754;-3.364;2023-04-24T07:11:30;101336.25;;;11.35;71.42
79527;BME280;68974;47.754;-3.364;2023-04-24T07:13:56;101333.50;;;11.35;70.87
79527;BME280;68974;47.754;-3.364;2023-04-24T07:16:22;101334.06;;;11.32;71.90
79527;BME280;68974;47.754;-3.364;2023-04-24T07:18:47;101336.56;;;11.43;71.46
79527;BME280;68974;47.754;-3.364;2023-04-24T07:21:13;101335.19;;;11.46;70.99
79527;BME280;68974;47.754;-3.364;2023-04-24T07:23:38;101335.47;;;11.49;70.40
79527;BME280;68974;47.754;-3.364;2023-04-24T07:26:04;101343.44;;;11.46;70.67
79527;BME280;68974;47.754;-3.364;2023-04-24T07:28:29;101340.69;;;11.46;70.51
79527;BME280;68974;47.754;-3.364;2023-04-24T07:30:58;101342.63;;;11.55;70.33
79527;BME280;68974;47.754;-3.364;2023-04-24T07:33:25;101351.69;;;11.51;69.64
79527;BME280;68974;47.754;-3.364;2023-04-24T07:35:50;101348.13;;;11.55;69.98
79527;BME280;68974;47.754;-3.364;2023-04-24T07:38:17;101345.13;;;11.62;68.92
79527;BME280;68974;47.754;-3.364;2023-04-24T07:40:45;101341.81;;;11.60;68.85
79527;BME280;68974;47.754;-3.364;2023-04-24T07:43:10;101342.38;;;11.67;69.06
79527;BME280;68974;47.754;-3.364;2023-04-24T07:45:36;101341.25;;;11.68;68.40
79527;BME280;68974;47.754;-3.364;2023-04-24T07:48:03;101347.38;;;11.80;68.02
79527;BME280;68974;47.754;-3.364;2023-04-24T07:50:28;101347.63;;;11.84;67.07
79527;BME280;68974;47.754;-3.364;2023-04-24T07:52:53;101344.03;;;11.83;67.13
79527;BME280;68974;47.754;-3.364;2023-04-24T07:55:19;101353.69;;;11.86;67.16
79527;BME280;68974;47.754;-3.364;2023-04-24T07:57:44;101353.44;;;11.77;67.79
79527;BME280;68974;47.754;-3.364;2023-04-24T08:00:10;101351.22;;;11.84;67.37
79527;BME280;68974;47.754;-3.364;2023-04-24T08:02:36;101362.22;;;11.89;66.45
79527;BME280;68974;47.754;-3.364;2023-04-24T08:05:01;101350.13;;;11.95;66.47
79527;BME280;68974;47.754;-3.364;2023-04-24T08:07:28;101346.81;;;11.98;65.93
79527;BME280;68974;47.754;-3.364;2023-04-24T08:09:54;101353.16;;;12.09;65.97
79527;BME280;68974;47.754;-3.364;2023-04-24T08:12:19;101355.63;;;12.26;65.57
79527;BME280;68974;47.754;-3.364;2023-04-24T08:14:45;101347.03;;;12.37;64.67
79527;BME280;68974;47.754;-3.364;2023-04-24T08:17:10;101351.69;;;12.52;62.41
79527;BME280;68974;47.754;-3.364;2023-04-24T08:19:36;101352.75;;;12.66;62.97
79527;BME280;68974;47.754;-3.364;2023-04-24T08:22:01;101363.50;;;12.73;61.31
79527;BME280;68974;47.754;-3.364;2023-04-24T08:24:27;101357.97;;;12.78;60.86
79527;BME280;68974;47.754;-3.364;2023-04-24T08:26:53;101358.81;;;12.78;61.37
79527;BME280;68974;47.754;-3.364;2023-04-24T08:29:19;101355.75;;;12.90;61.43
79527;BME280;68974;47.754;-3.364;2023-04-24T08:31:44;101355.66;;;13.00;62.54
79527;BME280;68974;47.754;-3.364;2023-04-24T08:34:10;101362.22;;;13.24;61.46
79527;BME280;68974;47.754;-3.364;2023-04-24T08:36:36;101352.47;;;13.42;59.66
79527;BME280;68974;47.754;-3.364;2023-04-24T08:39:02;101354.00;;;13.63;59.64
79527;BME280;68974;47.754;-3.364;2023-04-24T08:41:27;101357.84;;;14.01;58.45
79527;BME280;68974;47.754;-3.364;2023-04-24T08:43:53;101363.09;;;14.37;55.91
79527;BME280;68974;47.754;-3.364;2023-04-24T08:46:20;101361.06;;;14.42;55.84
79527;BME280;68974;47.754;-3.364;2023-04-24T08:48:46;101358.16;;;14.57;54.91
79527;BME280;68974;47.754;-3.364;2023-04-24T08:51:11;101358.47;;;14.56;54.98
79527;BME280;68974;47.754;-3.364;2023-04-24T08:53:37;101354.63;;;14.99;53.76
79527;BME280;68974;47.754;-3.364;2023-04-24T08:56:03;101361.06;;;14.95;54.00
79527;BME280;68974;47.754;-3.364;2023-04-24T08:58:29;101357.28;;;14.86;54.22
79527;BME280;68974;47.754;-3.364;2023-04-24T09:00:56;101360.03;;;14.86;54.18
79527;BME280;68974;47.754;-3.364;2023-04-24T09:03:27;101368.34;;;14.86;54.84
79527;BME280;68974;47.754;-3.364;2023-04-24T09:05:53;101373.47;;;14.73;55.13
79527;BME280;68974;47.754;-3.364;2023-04-24T09:08:19;101368.88;;;14.64;56.63
79527;BME280;68974;47.754;-3.364;2023-04-24T09:10:46;101379.81;;;14.50;56.27
79527;BME280;68974;47.754;-3.364;2023-04-24T09:13:11;101387.09;;;14.41;56.78
79527;BME280;68974;47.754;-3.364;2023-04-24T09:15:40;101364.44;;;14.34;56.27
79527;BME280;68974;47.754;-3.364;2023-04-24T09:18:06;101378.25;;;14.39;58.14
79527;BME280;68974;47.754;-3.364;2023-04-24T09:20:32;101381.19;;;14.14;57.57
79527;BME280;68974;47.754;-3.364;2023-04-24T09:22:58;101381.56;;;14.41;57.70
79527;BME280;68974;47.754;-3.364;2023-04-24T09:25:33;101369.69;;;14.64;56.94
79527;BME280;68974;47.754;-3.364;2023-04-24T09:28:02;101368.16;;;15.25;54.52
79527;BME280;68974;47.754;-3.364;2023-04-24T09:30:28;101363.63;;;15.52;53.50
79527;BME280;68974;47.754;-3.364;2023-04-24T09:33:14;101354.06;;;15.64;53.76
79527;BME280;68974;47.754;-3.364;2023-04-24T09:35:50;101349.47;;;15.91;52.38
79527;BME280;68974;47.754;-3.364;2023-04-24T09:38:16;101339.78;;;17.08;50.36
79527;BME280;68974;47.754;-3.364;2023-04-24T09:40:41;101347.50;;;17.11;48.16
79527;BME280;68974;47.754;-3.364;2023-04-24T09:43:10;101352.81;;;17.21;48.31
79527;BME280;68974;47.754;-3.364;2023-04-24T09:45:37;101357.16;;;17.77;45.53
79527;BME280;68974;47.754;-3.364;2023-04-24T09:48:03;101348.84;;;18.30;44.36
79527;BME280;68974;47.754;-3.364;2023-04-24T09:50:32;101352.59;;;18.26;43.95
79527;BME280;68974;47.754;-3.364;2023-04-24T09:53:02;101341.78;;;17.80;44.75
79527;BME280;68974;47.754;-3.364;2023-04-24T09:55:28;101349.75;;;17.95;45.71
79527;BME280;68974;47.754;-3.364;2023-04-24T09:57:55;101356.03;;;17.78;45.63
79527;BME280;68974;47.754;-3.364;2023-04-24T10:00:26;101353.91;;;17.48;47.22
79527;BME280;68974;47.754;-3.364;2023-04-24T10:02:59;101359.09;;;17.27;47.46
79527;BME280;68974;47.754;-3.364;2023-04-24T10:05:28;101373.69;;;17.32;47.50
79527;BME280;68974;47.754;-3.364;2023-04-24T10:08:00;101361.56;;;17.28;47.64
79527;BME280;68974;47.754;-3.364;2023-04-24T10:10:25;101367.13;;;17.01;48.18
79527;BME280;68974;47.754;-3.364;2023-04-24T10:12:52;101371.03;;;16.59;49.57
79527;BME280;68974;47.754;-3.364;2023-04-24T10:15:18;101375.19;;;16.11;50.90
79527;BME280;68974;47.754;-3.364;2023-04-24T10:17:48;101377.41;;;15.57;51.49
79527;BME280;68974;47.754;-3.364;2023-04-24T10:20:22;101380.97;;;15.15;53.61
79527;BME280;68974;47.754;-3.364;2023-04-24T10:22:49;101366.06;;;14.93;53.69
79527;BME280;68974;47.754;-3.364;2023-04-24T10:25:22;101369.03;;;14.72;55.46
79527;BME280;68974;47.754;-3.364;2023-04-24T10:27:49;101368.59;;;14.65;56.98
79527;BME280;68974;47.754;-3.364;2023-04-24T10:30:16;101369.53;;;14.56;57.65
79527;BME280;68974;47.754;-3.364;2023-04-24T10:32:42;101372.47;;;14.64;57.68
79527;BME280;68974;47.754;-3.364;2023-04-24T10:35:09;101369.00;;;14.78;58.39
79527;BME280;68974;47.754;-3.364;2023-04-24T10:37:36;101369.59;;;14.74;57.85
79527;BME280;68974;47.754;-3.364;2023-04-24T10:40:03;101367.22;;;14.87;58.76
79527;BME280;68974;47.754;-3.364;2023-04-24T10:42:29;101353.34;;;15.34;55.04
79527;BME280;68974;47.754;-3.364;2023-04-24T10:44:54;101360.91;;;15.47;54.86
79527;BME280;68974;47.754;-3.364;2023-04-24T10:47:21;101357.88;;;16.78;53.38
79527;BME280;68974;47.754;-3.364;2023-04-24T10:49:50;101346.66;;;18.49;46.46
79527;BME280;68974;47.754;-3.364;2023-04-24T10:52:16;101341.22;;;19.15;44.03
79527;BME280;68974;47.754;-3.364;2023-04-24T10:54:44;101347.63;;;19.24;43.81
79527;BME280;68974;47.754;-3.364;2023-04-24T11:02:14;101343.56;;;20.16;42.24
79527;BME280;68974;47.754;-3.364;2023-04-24T11:04:40;101333.25;;;20.08;40.78
79527;BME280;68974;47.754;-3.364;2023-04-24T11:07:08;101337.03;;;19.95;38.50
79527;BME280;68974;47.754;-3.364;2023-04-24T11:09:34;101353.66;;;20.63;38.73
79527;BME280;68974;47.754;-3.364;2023-04-24T11:12:05;101346.38;;;21.80;37.24
79527;BME280;68974;47.754;-3.364;2023-04-24T11:17:35;101337.06;;;22.29;34.17
79527;BME280;68974;47.754;-3.364;2023-04-24T11:20:10;101359.28;;;21.93;36.34
79527;BME280;68974;47.754;-3.364;2023-04-24T11:22:38;101366.56;;;21.85;36.21
79527;BME280;68974;47.754;-3.364;2023-04-24T11:25:06;101363.47;;;21.07;36.73
79527;BME280;68974;47.754;-3.364;2023-04-24T11:27:38;101359.19;;;20.81;36.73
79527;BME280;68974;47.754;-3.364;2023-04-24T11:30:05;101363.31;;;19.94;41.47
79527;BME280;68974;47.754;-3.364;2023-04-24T11:32:39;101370.50;;;19.95;41.14
79527;BME280;68974;47.754;-3.364;2023-04-24T11:35:20;101358.38;;;20.08;41.87
79527;BME280;68974;47.754;-3.364;2023-04-24T11:37:49;101348.38;;;19.64;41.34
79527;BME280;68974;47.754;-3.364;2023-04-24T11:40:16;101373.84;;;19.23;43.06
79527;BME280;68974;47.754;-3.364;2023-04-24T11:42:46;101365.06;;;19.46;43.32
79527;BME280;68974;47.754;-3.364;2023-04-24T11:45:13;101359.84;;;19.79;42.17
79527;BME280;68974;47.754;-3.364;2023-04-24T11:47:39;101361.13;;;20.25;41.84
79527;BME280;68974;47.754;-3.364;2023-04-24T11:50:13;101373.13;;;20.17;42.14
79527;BME280;68974;47.754;-3.364;2023-04-24T11:52:40;101368.94;;;19.37;42.16
79527;BME280;68974;47.754;-3.364;2023-04-24T11:55:07;101368.94;;;19.37;43.03
79527;BME280;68974;47.754;-3.364;2023-04-24T11:57:33;101363.94;;;19.90;43.71
79527;BME280;68974;47.754;-3.364;2023-04-24T12:00:00;101366.56;;;18.96;42.68
79527;BME280;68974;47.754;-3.364;2023-04-24T12:02:27;101369.38;;;18.65;44.16
79527;BME280;68974;47.754;-3.364;2023-04-24T12:04:53;101366.25;;;18.36;45.13
79527;BME280;68974;47.754;-3.364;2023-04-24T12:07:19;101359.97;;;18.30;46.01
79527;BME280;68974;47.754;-3.364;2023-04-24T12:09:50;101359.84;;;19.54;45.69
79527;BME280;68974;47.754;-3.364;2023-04-24T12:12:19;101344.19;;;20.30;42.31
79527;BME280;68974;47.754;-3.364;2023-04-24T12:17:29;101341.13;;;19.80;42.68
79527;BME280;68974;47.754;-3.364;2023-04-24T12:20:14;101354.47;;;19.00;44.68
79527;BME280;68974;47.754;-3.364;2023-04-24T12:22:46;101356.50;;;18.25;45.47
79527;BME280;68974;47.754;-3.364;2023-04-24T12:25:16;101348.06;;;17.85;46.79
79527;BME280;68974;47.754;-3.364;2023-04-24T12:27:46;101347.28;;;18.15;46.92
79527;BME280;68974;47.754;-3.364;2023-04-24T12:30:17;101352.47;;;19.49;44.59
79527;BME280;68974;47.754;-3.364;2023-04-24T12:32:48;101334.97;;;20.93;41.33
79527;BME280;68974;47.754;-3.364;2023-04-24T12:35:19;101336.09;;;21.72;39.22
79527;BME280;68974;47.754;-3.364;2023-04-24T12:37:45;101349.56;;;20.99;38.58
79527;BME280;68974;47.754;-3.364;2023-04-24T12:40:12;101357.50;;;20.88;38.91
79527;BME280;68974;47.754;-3.364;2023-04-24T12:42:47;101359.16;;;20.25;41.08
79527;BME280;68974;47.754;-3.364;2023-04-24T12:45:13;101364.78;;;19.09;42.15
79527;BME280;68974;47.754;-3.364;2023-04-24T12:47:40;101367.72;;;19.03;41.13